createdAt,value
2023-08-23T00:03:29.186Z,15.85
2023-08-23T00:07:32.161Z,15.73
2023-08-23T00:11:36.519Z,15.73
2023-08-23T00:15:43.252Z,15.65
2023-08-23T00:19:47.324Z,15.58
2023-08-23T00:23:50.228Z,15.54
2023-08-23T00:28:11.503Z,15.46
2023-08-23T00:32:16.611Z,15.46
2023-08-23T00:36:19.607Z,15.40
2023-08-23T00:40:22.600Z,15.34
2023-08-23T00:44:26.871Z,15.33
2023-08-23T00:48:29.999Z,15.24
2023-08-23T00:52:39.573Z,15.21
2023-08-23T00:56:51.225Z,15.27
2023-08-23T01:00:55.689Z,15.16
2023-08-23T01:04:58.612Z,15.09
2023-08-23T01:09:05.538Z,15.03
2023-08-23T01:13:11.414Z,14.98
2023-08-23T01:17:18.033Z,14.98
2023-08-23T01:21:25.236Z,14.93
2023-08-23T01:25:29.618Z,14.87
2023-08-23T01:29:32.577Z,14.80
2023-08-23T01:33:37.043Z,14.76
2023-08-23T01:37:40.890Z,14.71
2023-08-23T01:41:45.365Z,14.64
2023-08-23T01:45:48.363Z,14.61
2023-08-23T01:49:51.353Z,14.59
2023-08-23T01:53:54.291Z,14.62
2023-08-23T01:57:59.086Z,14.56
2023-08-23T02:02:02.072Z,14.51
2023-08-23T02:06:05.110Z,14.45
2023-08-23T02:10:08.820Z,14.55
2023-08-23T02:14:13.075Z,14.45
2023-08-23T02:18:17.811Z,14.43
2023-08-23T02:22:21.099Z,14.37
2023-08-23T02:26:24.020Z,14.52
2023-08-23T02:30:28.397Z,14.54
2023-08-23T02:34:31.376Z,14.53
2023-08-23T02:38:34.316Z,14.50
2023-08-23T02:42:37.239Z,14.54
2023-08-23T02:46:41.727Z,14.60
2023-08-23T02:50:45.473Z,14.61
2023-08-23T02:54:48.411Z,14.55
2023-08-23T02:58:51.352Z,14.53
2023-08-23T03:02:55.657Z,14.49
2023-08-23T03:06:58.575Z,14.47
2023-08-23T03:11:03.421Z,14.21
2023-08-23T03:15:07.076Z,14.21
2023-08-23T03:19:11.495Z,14.14
2023-08-23T03:23:14.508Z,14.12
2023-08-23T03:27:20.125Z,14.13
2023-08-23T03:31:23.858Z,14.10
2023-08-23T03:35:30.205Z,13.98
2023-08-23T03:39:33.190Z,13.94
2023-08-23T03:43:36.076Z,13.89
2023-08-23T03:47:38.995Z,13.85
2023-08-23T03:51:43.298Z,13.89
2023-08-23T03:55:46.323Z,13.80
2023-08-23T03:59:49.252Z,13.75
2023-08-23T04:03:52.305Z,13.65
2023-08-23T04:07:56.709Z,13.67
2023-08-23T04:12:00.008Z,13.72
2023-08-23T04:16:02.952Z,13.71
2023-08-23T04:20:08.226Z,13.64
2023-08-23T04:24:12.789Z,13.62
2023-08-23T04:28:15.776Z,13.69
2023-08-23T04:32:19.503Z,13.85
2023-08-23T04:36:22.446Z,13.76
2023-08-23T04:40:26.722Z,13.63
2023-08-23T04:44:31.835Z,13.56
2023-08-23T04:48:35.099Z,13.58
2023-08-23T04:52:37.999Z,13.64
2023-08-23T04:56:42.305Z,13.85
2023-08-23T05:00:47.104Z,13.94
2023-08-23T05:04:50.220Z,13.94
2023-08-23T05:08:53.174Z,14.03
2023-08-23T05:13:01.926Z,14.08
2023-08-23T05:17:05.142Z,14.09
2023-08-23T05:21:09.827Z,14.23
2023-08-23T05:25:12.864Z,14.29
2023-08-23T05:29:17.152Z,14.32
2023-08-23T05:33:20.150Z,14.45
2023-08-23T05:37:23.274Z,14.61
2023-08-23T05:41:26.642Z,14.74
2023-08-23T05:45:31.436Z,14.86
2023-08-23T05:49:34.350Z,14.95
2023-08-23T05:53:37.251Z,15.09
2023-08-23T05:57:40.254Z,15.25
2023-08-23T06:01:44.574Z,15.36
2023-08-23T06:05:47.499Z,15.48
2023-08-23T06:09:50.423Z,15.70
2023-08-23T06:13:53.368Z,15.93
2023-08-23T06:17:58.163Z,16.19
2023-08-23T06:22:01.324Z,16.45
2023-08-23T06:26:04.850Z,16.73
2023-08-23T06:30:08.826Z,16.95
2023-08-23T06:34:13.163Z,17.13
2023-08-23T06:38:17.162Z,17.46
2023-08-23T06:42:20.097Z,17.60
2023-08-23T06:46:23.137Z,17.82
2023-08-23T06:50:27.633Z,18.06
2023-08-23T06:54:30.668Z,18.28
2023-08-23T06:58:33.858Z,18.43
2023-08-23T07:02:36.932Z,18.73
2023-08-23T07:06:41.325Z,18.76
2023-08-23T07:10:45.370Z,19.25
2023-08-23T07:14:51.349Z,19.46
2023-08-23T07:18:54.412Z,19.55
2023-08-23T07:22:58.734Z,19.58
2023-08-23T07:27:01.677Z,19.77
2023-08-23T07:31:04.712Z,19.94
2023-08-23T07:35:08.786Z,20.09
2023-08-23T07:39:13.076Z,20.30
2023-08-23T07:43:16.181Z,20.57
2023-08-23T07:47:19.085Z,20.67
2023-08-23T07:51:22.093Z,20.79
2023-08-23T07:55:26.358Z,21.00
2023-08-23T07:59:29.305Z,21.51
2023-08-23T08:03:32.299Z,22.26
2023-08-23T08:08:06.574Z,23.49
2023-08-23T08:11:59.468Z,24.22
2023-08-23T08:16:07.539Z,25.50
2023-08-23T08:20:13.377Z,24.14
2023-08-23T08:24:16.594Z,26.95
2023-08-23T08:28:20.857Z,25.74
2023-08-23T08:32:23.897Z,27.43
2023-08-23T08:36:26.828Z,25.85
2023-08-23T08:40:30.596Z,27.72
2023-08-23T08:44:34.867Z,27.89
2023-08-23T08:48:37.796Z,27.08
2023-08-23T08:52:42.559Z,27.50
2023-08-23T08:56:47.676Z,27.14
2023-08-23T09:00:54.203Z,29.52
2023-08-23T09:04:57.562Z,29.60
2023-08-23T09:09:00.896Z,29.73
2023-08-23T09:13:04.351Z,29.40
2023-08-23T09:17:09.858Z,28.13
2023-08-23T09:21:13.679Z,29.41
2023-08-23T09:25:16.661Z,30.02
2023-08-23T09:29:20.123Z,29.91
2023-08-23T09:33:25.026Z,27.80
2023-08-23T09:37:29.269Z,28.22
2023-08-23T09:41:32.536Z,28.51
2023-08-23T09:45:36.008Z,30.01
2023-08-23T09:49:42.478Z,30.37
2023-08-23T09:53:49.530Z,29.28
2023-08-23T09:57:53.762Z,30.46
2023-08-23T10:01:57.502Z,31.12
2023-08-23T10:06:02.040Z,30.21
2023-08-23T10:10:07.546Z,31.48
2023-08-23T10:14:11.376Z,30.25
2023-08-23T10:18:15.812Z,29.75
2023-08-23T10:22:20.371Z,29.60
2023-08-23T10:26:24.281Z,30.09
2023-08-23T10:30:27.920Z,29.16
2023-08-23T10:34:31.028Z,29.56
2023-08-23T10:38:36.021Z,30.38
2023-08-23T10:42:38.958Z,29.95
2023-08-23T10:46:45.994Z,30.28
2023-08-23T10:50:49.347Z,31.01
2023-08-23T10:54:53.967Z,29.44
2023-08-23T10:58:56.862Z,30.73
2023-08-23T11:03:01.625Z,29.58
2023-08-23T11:07:04.885Z,32.43
2023-08-23T11:11:09.198Z,31.80
2023-08-23T11:15:12.526Z,28.89
2023-08-23T11:19:15.494Z,30.36
2023-08-23T11:23:18.411Z,30.84
2023-08-23T11:27:22.707Z,30.14
2023-08-23T11:31:25.734Z,30.59
2023-08-23T11:35:29.063Z,30.40
2023-08-23T11:39:31.987Z,30.77
2023-08-23T11:43:36.365Z,31.90
2023-08-23T11:47:39.321Z,30.91
2023-08-23T11:51:45.326Z,30.50
2023-08-23T11:55:50.374Z,31.23
2023-08-23T11:59:55.141Z,27.97
2023-08-23T12:03:58.198Z,29.47
2023-08-23T12:08:01.508Z,28.55
2023-08-23T12:12:04.868Z,29.97
2023-08-23T12:16:09.321Z,29.79
2023-08-23T12:20:12.669Z,30.37
2023-08-23T12:24:15.616Z,28.98
2023-08-23T12:28:19.063Z,30.03
2023-08-23T12:32:23.413Z,30.48
2023-08-23T12:36:27.133Z,30.20
2023-08-23T12:40:30.098Z,31.57
2023-08-23T12:44:34.283Z,31.87
2023-08-23T12:48:38.662Z,31.99
2023-08-23T12:52:41.638Z,31.00
2023-08-23T12:56:44.788Z,30.99
2023-08-23T13:00:47.756Z,31.04
2023-08-23T13:04:52.207Z,32.00
2023-08-23T13:08:55.117Z,30.60
2023-08-23T13:12:58.059Z,31.40
2023-08-23T13:17:01.046Z,31.32
2023-08-23T13:21:07.960Z,32.27
2023-08-23T13:25:11.625Z,32.65
2023-08-23T13:29:14.555Z,31.86
2023-08-23T13:33:17.515Z,32.72
2023-08-23T13:37:21.824Z,32.32
2023-08-23T13:41:25.545Z,31.78
2023-08-23T13:45:28.710Z,32.61
2023-08-23T13:49:31.733Z,31.52
2023-08-23T13:53:36.027Z,30.85
2023-08-23T13:57:39.011Z,32.20
2023-08-23T14:01:42.259Z,31.67
2023-08-23T14:05:45.248Z,31.90
2023-08-23T14:09:49.536Z,31.86
2023-08-23T14:13:52.813Z,30.88
2023-08-23T14:17:55.936Z,30.37
2023-08-23T14:21:58.915Z,31.16
2023-08-23T14:26:05.266Z,31.68
2023-08-23T14:30:09.335Z,31.64
2023-08-23T14:34:12.532Z,32.62
2023-08-23T14:38:15.620Z,32.10
2023-08-23T14:42:19.895Z,32.55
2023-08-23T14:46:23.007Z,33.11
2023-08-23T14:50:27.128Z,31.68
2023-08-23T14:54:30.249Z,32.94
2023-08-23T14:58:34.634Z,31.31
2023-08-23T15:02:37.849Z,32.94
2023-08-23T15:06:40.768Z,33.01
2023-08-23T15:10:44.013Z,32.32
2023-08-23T15:14:48.286Z,33.25
2023-08-23T15:18:51.314Z,32.44
2023-08-23T15:22:54.315Z,30.35
2023-08-23T15:26:57.250Z,31.41
2023-08-23T15:31:04.304Z,32.31
2023-08-23T15:35:07.750Z,32.33
2023-08-23T15:39:10.751Z,31.68
2023-08-23T15:43:13.678Z,31.18
2023-08-23T15:47:19.055Z,31.55
2023-08-23T15:51:22.208Z,31.05
2023-08-23T15:55:26.800Z,31.04
2023-08-23T15:59:30.453Z,31.77
2023-08-23T16:03:34.769Z,31.84
2023-08-23T16:07:37.862Z,32.02
2023-08-23T16:11:40.751Z,30.92
2023-08-23T16:15:43.866Z,30.29
2023-08-23T16:19:48.206Z,29.62
2023-08-23T16:23:51.132Z,31.31
2023-08-23T16:27:54.166Z,30.13
2023-08-23T16:31:57.359Z,29.96
2023-08-23T16:36:01.672Z,31.63
2023-08-23T16:40:04.904Z,31.12
2023-08-23T16:44:07.927Z,30.60
2023-08-23T16:48:11.089Z,31.21
2023-08-23T16:52:15.802Z,30.48
2023-08-23T16:56:18.806Z,30.28
2023-08-23T17:00:22.004Z,30.27
2023-08-23T17:04:24.986Z,30.29
2023-08-23T17:08:29.271Z,28.80
2023-08-23T17:12:32.207Z,29.09
2023-08-23T17:16:36.192Z,29.52
2023-08-23T17:20:39.234Z,29.90
2023-08-23T17:24:43.681Z,29.09
2023-08-23T17:28:46.793Z,29.87
2023-08-23T17:32:49.909Z,29.50
2023-08-23T17:36:53.685Z,29.16
2023-08-23T17:40:57.994Z,28.92
2023-08-23T17:45:04.594Z,29.03
2023-08-23T17:49:08.251Z,28.98
2023-08-23T17:53:11.270Z,28.86
2023-08-23T17:57:15.509Z,28.04
2023-08-23T18:01:21.308Z,27.61
2023-08-23T18:05:24.512Z,27.60
2023-08-23T18:09:27.623Z,26.99
2023-08-23T18:13:32.055Z,26.06
2023-08-23T18:17:35.072Z,25.99
2023-08-23T18:21:38.342Z,25.82
2023-08-23T18:25:41.913Z,25.86
2023-08-23T18:29:46.218Z,25.45
2023-08-23T18:33:49.221Z,25.36
2023-08-23T18:37:52.441Z,24.75
2023-08-23T18:41:55.361Z,24.48
2023-08-23T18:45:59.691Z,24.02
2023-08-23T18:50:02.933Z,23.62
2023-08-23T18:54:06.292Z,23.48
2023-08-23T18:58:09.186Z,22.91
2023-08-23T19:02:13.458Z,22.59
2023-08-23T19:06:16.394Z,22.37
2023-08-23T19:10:19.527Z,22.12
2023-08-23T19:14:22.578Z,21.94
2023-08-23T19:18:27.105Z,21.77
2023-08-23T19:22:30.153Z,21.79
2023-08-23T19:26:33.278Z,21.85
2023-08-23T19:30:36.233Z,21.85
2023-08-23T19:34:40.569Z,21.69
2023-08-23T19:38:43.495Z,21.54
2023-08-23T19:42:46.497Z,21.37
2023-08-23T19:46:49.504Z,21.23
2023-08-23T19:50:53.830Z,21.01
2023-08-23T19:54:56.969Z,20.70
2023-08-23T19:59:00.104Z,20.56
2023-08-23T20:03:03.352Z,20.22
2023-08-23T20:07:07.792Z,20.15
2023-08-23T20:11:10.788Z,20.06
2023-08-23T20:15:13.999Z,20.06
2023-08-23T20:19:16.908Z,19.99
2023-08-23T20:23:21.461Z,19.90
2023-08-23T20:27:24.630Z,19.78
2023-08-23T20:31:27.836Z,19.78
2023-08-23T20:35:31.008Z,19.83
2023-08-23T20:39:36.001Z,19.69
2023-08-23T20:43:39.282Z,19.72
2023-08-23T20:47:42.242Z,19.64
2023-08-23T20:51:45.220Z,19.50
2023-08-23T20:55:50.911Z,19.34
2023-08-23T20:59:54.219Z,19.27
2023-08-23T21:03:57.163Z,19.29
2023-08-23T21:08:00.277Z,19.12
2023-08-23T21:12:05.772Z,19.11
2023-08-23T21:16:08.710Z,19.07
2023-08-23T21:20:11.973Z,18.83
2023-08-23T21:24:14.885Z,18.81
2023-08-23T21:28:19.170Z,18.82
2023-08-23T21:32:22.117Z,18.77
2023-08-23T21:36:25.169Z,18.73
2023-08-23T21:40:28.091Z,18.64
2023-08-23T21:44:32.431Z,18.48
2023-08-23T21:48:35.584Z,18.49
2023-08-23T21:52:38.515Z,18.50
2023-08-23T21:56:41.454Z,18.47
2023-08-23T22:00:45.760Z,18.44
2023-08-23T22:04:48.802Z,18.40
2023-08-23T22:08:51.800Z,18.29
2023-08-23T22:12:54.663Z,18.18
2023-08-23T22:16:59.081Z,17.85
2023-08-23T22:21:05.757Z,17.89
2023-08-23T22:25:09.087Z,17.96
2023-08-23T22:29:12.076Z,18.02
2023-08-23T22:33:16.357Z,17.89
2023-08-23T22:37:19.284Z,17.66
2023-08-23T22:41:22.183Z,17.68
2023-08-23T22:45:25.247Z,17.59
2023-08-23T22:49:30.609Z,17.61
2023-08-23T22:53:33.523Z,17.64
2023-08-23T22:57:36.529Z,17.66
2023-08-23T23:01:39.537Z,17.32
2023-08-23T23:05:43.818Z,17.26
2023-08-23T23:09:46.882Z,17.32
2023-08-23T23:13:49.890Z,17.25
2023-08-23T23:17:53.044Z,17.10
2023-08-23T23:21:57.536Z,16.82
2023-08-23T23:26:00.425Z,16.88
2023-08-23T23:30:03.446Z,16.97
2023-08-23T23:34:06.701Z,17.08
2023-08-23T23:38:11.003Z,17.07
2023-08-23T23:42:13.994Z,17.01
2023-08-23T23:46:18.541Z,16.96
2023-08-23T23:50:21.628Z,16.95
2023-08-23T23:54:25.846Z,17.00
2023-08-23T23:58:28.860Z,16.96
